Time;durP1;ratioP1;P1;durP2;ratioP2;P2;SDS_P1;SDS_P2;PMS_P1;PMS_P2;Temp;Humidity;BMP_temperature;BMP_pressure;BME280_temperature;BME280_humidity;BME280_pressure;Samples;Min_cycle;Max_cycle;Signal;HPM_P1;HPM_P2
2023/03/30 00:00:42;;;;;;;10.05;6.32;;;11.70;99.90;;;;;;5082022;28;20689;-52
2023/03/30 00:03:08;;;;;;;9.85;5.72;;;11.60;99.90;;;;;;5085368;28;20036;-49
2023/03/30 00:05:34;;;;;;;9.05;5.80;;;11.60;99.90;;;;;;5083898;28;20502;-52
2023/03/30 00:08:01;;;;;;;10.85;5.60;;;11.60;99.90;;;;;;5082890;28;20041;-53
2023/03/30 00:10:28;;;;;;;8.15;5.25;;;11.70;99.90;;;;;;5083525;28;20055;-53
2023/03/30 00:12:55;;;;;;;8.50;4.93;;;11.70;99.90;;;;;;5078041;28;20493;-50
2023/03/30 00:15:23;;;;;;;7.50;5.35;;;11.70;99.90;;;;;;5086678;28;20040;-50
2023/03/30 00:17:53;;;;;;;9.50;5.85;;;11.80;99.90;;;;;;5078091;28;20131;-50
2023/03/30 00:20:20;;;;;;;7.55;5.13;;;11.80;99.90;;;;;;5087178;28;20042;-50
2023/03/30 00:22:46;;;;;;;8.10;5.15;;;11.80;99.90;;;;;;5083590;28;20048;-50
2023/03/30 00:25:14;;;;;;;6.68;4.90;;;11.80;99.90;;;;;;5083240;28;20407;-49
2023/03/30 00:27:40;;;;;;;7.60;4.38;;;11.90;99.90;;;;;;5084926;28;20508;-50
2023/03/30 00:30:14;;;;;;;9.40;5.10;;;11.80;99.90;;;;;;5085864;28;20043;-51
2023/03/30 00:32:40;;;;;;;7.50;4.63;;;11.90;99.90;;;;;;5079643;28;20506;-52
2023/03/30 00:35:06;;;;;;;8.48;4.60;;;12.00;99.90;;;;;;5084150;28;20074;-49
2023/03/30 00:37:32;;;;;;;9.80;5.32;;;11.90;99.90;;;;;;5090669;28;20042;-49
2023/03/30 00:39:58;;;;;;;6.72;4.80;;;12.00;99.90;;;;;;5087051;28;20040;-49
2023/03/30 00:42:24;;;;;;;7.55;4.78;;;11.90;99.90;;;;;;5085572;28;20045;-49
2023/03/30 00:45:11;;;;;;;7.97;5.03;;;11.90;99.90;;;;;;5090516;28;20127;-49
2023/03/30 00:48:05;;;;;;;8.55;4.63;;;11.80;99.90;;;;;;5090074;28;20048;-50
2023/03/30 00:50:39;;;;;;;9.07;5.07;;;11.80;99.90;;;;;;5078408;28;20124;-49
2023/03/30 00:53:32;;;;;;;9.65;5.30;;;11.70;99.90;;;;;;5085563;28;20055;-49
2023/03/30 00:55:59;;;;;;;7.63;5.10;;;11.70;99.90;;;;;;5086270;28;20058;-51
2023/03/30 00:58:27;;;;;;;7.10;5.00;;;11.70;99.90;;;;;;5085031;28;20773;-54
2023/03/30 01:00:53;;;;;;;7.72;4.88;;;11.70;99.90;;;;;;5082876;28;20501;-51
2023/03/30 01:03:26;;;;;;;7.70;4.72;;;11.70;99.90;;;;;;5081027;28;20150;-50
2023/03/30 01:05:54;;;;;;;8.32;4.85;;;11.70;99.90;;;;;;5082996;28;20056;-53
2023/03/30 01:08:22;;;;;;;7.10;4.80;;;11.70;99.90;;;;;;5083971;28;20028;-53
2023/03/30 01:10:49;;;;;;;7.25;4.72;;;11.70;99.90;;;;;;5091253;28;20090;-51
2023/03/30 01:13:15;;;;;;;7.10;4.70;;;11.70;99.90;;;;;;5084195;28;20040;-53
2023/03/30 01:15:54;;;;;;;6.45;4.80;;;11.70;99.90;;;;;;5084231;28;20055;-50
2023/03/30 01:18:29;;;;;;;9.02;4.80;;;11.70;99.90;;;;;;5089831;28;20055;-51
2023/03/30 01:21:32;;;;;;;7.75;4.68;;;11.70;99.90;;;;;;5087194;28;20051;-51
2023/03/30 01:24:17;;;;;;;10.95;4.80;;;11.70;99.90;;;;;;5080686;28;20161;-50
2023/03/30 01:26:58;;;;;;;8.63;4.93;;;11.70;99.90;;;;;;5088987;28;20046;-50
2023/03/30 01:29:39;;;;;;;7.43;4.60;;;11.80;99.90;;;;;;5087089;28;20096;-49
2023/03/30 01:32:23;;;;;;;7.72;4.90;;;11.80;99.90;;;;;;5085938;28;20041;-52
2023/03/30 01:35:11;;;;;;;8.75;4.50;;;11.80;99.90;;;;;;5089367;28;20048;-50
2023/03/30 01:37:47;;;;;;;10.13;4.78;;;11.80;99.90;;;;;;5083997;28;20390;-50
2023/03/30 01:40:20;;;;;;;8.43;5.10;;;11.70;99.90;;;;;;5087394;28;20405;-50
2023/03/30 01:43:00;;;;;;;7.15;5.07;;;11.70;99.90;;;;;;5087365;28;20079;-49
2023/03/30 01:45:54;;;;;;;7.28;4.88;;;11.70;99.90;;;;;;5081425;28;20473;-49
2023/03/30 01:48:44;;;;;;;6.95;4.50;;;11.70;99.90;;;;;;5087805;28;20362;-51
2023/03/30 01:51:22;;;;;;;10.57;4.40;;;11.70;99.90;;;;;;5087777;28;20047;-49
2023/03/30 01:54:01;;;;;;;11.88;4.90;;;11.70;99.90;;;;;;5087218;28;20102;-52
2023/03/30 01:56:31;;;;;;;6.95;5.22;;;11.70;99.90;;;;;;5085975;28;20056;-49
2023/03/30 01:59:10;;;;;;;7.00;4.47;;;11.70;99.90;;;;;;5082781;28;20361;-50
2023/03/30 02:01:40;;;;;;;7.32;4.47;;;11.70;99.90;;;;;;5083285;28;20640;-49
2023/03/30 02:04:08;;;;;;;8.57;4.80;;;11.70;99.90;;;;;;5081065;28;20063;-49
2023/03/30 02:06:39;;;;;;;;;;;11.70;99.90;;;;;;5084695;28;20055;-49
2023/03/30 02:09:12;;;;;;;9.85;4.90;;;11.70;99.90;;;;;;5084665;28;20019;-51
2023/03/30 02:11:42;;;;;;;6.65;4.82;;;11.70;99.90;;;;;;5085240;28;20075;-53
2023/03/30 02:14:10;;;;;;;11.73;4.90;;;11.70;99.90;;;;;;5082609;28;20048;-50
2023/03/30 02:16:47;;;;;;;7.45;4.55;;;11.70;99.90;;;;;;5084893;28;20366;-49
2023/03/30 02:19:14;;;;;;;7.32;4.10;;;11.80;99.90;;;;;;5088949;28;20032;-54
2023/03/30 02:21:41;;;;;;;8.63;4.95;;;11.70;99.90;;;;;;5090233;28;20528;-52
2023/03/30 02:24:16;;;;;;;7.38;4.25;;;11.80;99.90;;;;;;5083757;28;20051;-49
2023/03/30 02:26:46;;;;;;;5.30;4.50;;;11.80;99.90;;;;;;5087190;28;20068;-53
2023/03/30 02:29:13;;;;;;;6.55;4.20;;;11.80;99.90;;;;;;5083548;28;20043;-52
2023/03/30 02:31:39;;;;;;;8.63;4.22;;;11.70;99.90;;;;;;5086327;28;20138;-53
2023/03/30 02:34:19;;;;;;;7.00;4.60;;;11.70;99.90;;;;;;5083545;28;20520;-51
2023/03/30 02:37:05;;;;;;;7.20;4.60;;;11.80;99.90;;;;;;5085385;28;20051;-51
2023/03/30 02:39:56;;;;;;;8.30;4.00;;;11.70;99.90;;;;;;5087686;28;20048;-51
2023/03/30 02:42:31;;;;;;;7.32;4.03;;;11.70;99.90;;;;;;5084175;28;20119;-52
2023/03/30 02:45:12;;;;;;;10.73;4.78;;;11.80;99.90;;;;;;5079785;28;20127;-53
2023/03/30 02:48:06;;;;;;;7.18;4.43;;;11.80;99.90;;;;;;5083265;28;20101;-50
2023/03/30 02:50:53;;;;;;;7.78;4.55;;;11.80;99.90;;;;;;5086358;28;20064;-53
2023/03/30 02:53:34;;;;;;;10.48;4.65;;;11.80;99.90;;;;;;5081050;28;20503;-50
2023/03/30 02:56:14;;;;;;;9.82;4.55;;;11.80;99.90;;;;;;5085387;28;20409;-49
2023/03/30 02:59:11;;;;;;;5.57;4.50;;;11.80;99.90;;;;;;5080230;28;20044;-54
2023/03/30 03:01:47;;;;;;;6.00;4.03;;;11.80;99.90;;;;;;5077647;28;20059;-49
2023/03/30 03:04:16;;;;;;;6.35;4.03;;;11.90;99.90;;;;;;5084176;28;20066;-51
2023/03/30 03:06:42;;;;;;;7.10;4.03;;;11.90;99.90;;;;;;5086564;28;20032;-50
2023/03/30 03:09:08;;;;;;;4.70;4.20;;;11.80;99.90;;;;;;5083292;28;20104;-53
2023/03/30 03:11:34;;;;;;;7.30;4.00;;;11.80;99.90;;;;;;5087193;28;20032;-52
2023/03/30 03:13:59;;;;;;;8.00;4.25;;;11.80;99.90;;;;;;5082401;28;20036;-54
2023/03/30 03:16:25;;;;;;;8.60;4.15;;;11.80;99.90;;;;;;5085359;28;20507;-49
2023/03/30 03:18:51;;;;;;;7.60;4.30;;;11.80;99.90;;;;;;5085133;28;20464;-50
2023/03/30 03:21:17;;;;;;;7.75;4.10;;;11.80;99.90;;;;;;5085386;28;20040;-50
2023/03/30 03:23:43;;;;;;;7.70;3.90;;;11.80;99.90;;;;;;5079066;28;20057;-52
2023/03/30 03:26:10;;;;;;;9.18;3.83;;;11.70;99.90;;;;;;5083957;28;20028;-49
2023/03/30 03:28:36;;;;;;;7.82;3.67;;;11.70;99.90;;;;;;5084875;28;20051;-50
2023/03/30 03:31:02;;;;;;;5.95;3.83;;;11.70;99.90;;;;;;5081671;28;20051;-50
2023/03/30 03:33:30;;;;;;;6.05;4.00;;;11.70;99.90;;;;;;5078403;28;20043;-50
2023/03/30 03:35:58;;;;;;;6.45;4.00;;;11.60;99.90;;;;;;5083491;28;20040;-51
2023/03/30 03:38:25;;;;;;;7.88;3.85;;;11.60;99.90;;;;;;5087172;28;20436;-49
2023/03/30 03:40:53;;;;;;;6.82;3.70;;;11.60;99.90;;;;;;5079680;28;20040;-49
2023/03/30 03:43:20;;;;;;;7.38;4.05;;;11.60;99.90;;;;;;5088304;28;20440;-52
2023/03/30 03:45:46;;;;;;;8.55;3.40;;;11.60;99.90;;;;;;5086151;28;20135;-51
2023/03/30 03:48:16;;;;;;;9.00;3.40;;;11.60;99.90;;;;;;5086197;28;20127;-51
2023/03/30 03:50:43;;;;;;;6.95;3.60;;;11.60;99.90;;;;;;5078053;28;20435;-52
2023/03/30 03:53:10;;;;;;;8.98;3.80;;;11.60;99.90;;;;;;5083434;28;20393;-49
2023/03/30 03:55:36;;;;;;;5.47;4.05;;;11.70;99.90;;;;;;5085115;28;20512;-50
2023/03/30 03:58:04;;;;;;;5.93;3.80;;;11.60;99.90;;;;;;5081064;28;20049;-51
2023/03/30 04:00:30;;;;;;;8.18;3.85;;;11.70;99.90;;;;;;5081259;28;20441;-50
2023/03/30 04:02:56;;;;;;;7.10;3.75;;;11.70;99.90;;;;;;5087995;28;20380;-51
2023/03/30 04:05:22;;;;;;;6.97;3.58;;;11.70;99.90;;;;;;5080798;28;20040;-52
2023/03/30 04:07:47;;;;;;;7.95;4.70;;;11.80;99.90;;;;;;5082773;28;20428;-49
2023/03/30 04:10:14;;;;;;;6.57;3.85;;;11.70;99.90;;;;;;5083936;28;20054;-52
2023/03/30 04:12:40;;;;;;;7.97;3.50;;;11.70;99.90;;;;;;5077185;28;20043;-50
2023/03/30 04:15:06;;;;;;;6.45;3.58;;;11.70;99.90;;;;;;5079095;28;20139;-50
2023/03/30 04:17:33;;;;;;;8.65;3.95;;;11.70;99.90;;;;;;5087192;28;20556;-51
2023/03/30 04:20:04;;;;;;;8.43;3.67;;;11.70;99.90;;;;;;5077731;28;20052;-50
2023/03/30 04:22:40;;;;;;;8.88;3.90;;;11.70;99.90;;;;;;5086267;28;20122;-50
2023/03/30 04:25:07;;;;;;;5.85;3.85;;;11.70;99.90;;;;;;5084949;28;20404;-49
2023/03/30 04:27:33;;;;;;;5.93;4.03;;;11.60;99.90;;;;;;5085389;28;20229;-53
2023/03/30 04:30:00;;;;;;;8.90;3.63;;;11.70;99.90;;;;;;5081545;28;20517;-51
2023/03/30 04:32:26;;;;;;;7.97;3.58;;;11.70;99.90;;;;;;5075988;28;20067;-51
2023/03/30 04:34:55;;;;;;;6.65;3.25;;;11.70;99.90;;;;;;5083685;28;20037;-49
2023/03/30 04:37:28;;;;;;;5.20;3.30;;;11.70;99.90;;;;;;5081191;28;20412;-49
2023/03/30 04:39:56;;;;;;;4.45;3.20;;;11.70;99.90;;;;;;5076325;28;20156;-53
2023/03/30 04:42:29;;;;;;;5.40;3.13;;;11.70;99.90;;;;;;5087196;28;20036;-49
2023/03/30 04:44:58;;;;;;;4.60;2.80;;;11.70;99.90;;;;;;5086730;28;20085;-49
2023/03/30 04:47:25;;;;;;;4.22;3.10;;;11.70;99.90;;;;;;5082235;28;20036;-49
2023/03/30 04:49:51;;;;;;;9.15;3.42;;;11.70;99.90;;;;;;5071379;28;20123;-49
2023/03/30 04:52:18;;;;;;;9.07;3.70;;;11.70;99.90;;;;;;5076612;28;20119;-50
2023/03/30 04:54:44;;;;;;;6.22;3.30;;;11.70;99.90;;;;;;5085691;28;20063;-52
2023/03/30 04:57:11;;;;;;;4.47;3.28;;;11.70;99.90;;;;;;5078733;28;20090;-50
2023/03/30 04:59:36;;;;;;;7.65;3.22;;;11.70;99.90;;;;;;5078353;28;20055;-49
2023/03/30 05:02:02;;;;;;;8.02;3.40;;;11.80;99.90;;;;;;5073198;28;20380;-51
2023/03/30 05:04:28;;;;;;;6.60;3.28;;;11.80;99.90;;;;;;5075111;28;20548;-50
2023/03/30 05:06:56;;;;;;;5.90;3.10;;;11.80;99.90;;;;;;5078870;28;20036;-49
2023/03/30 05:09:22;;;;;;;7.97;3.20;;;11.80;99.90;;;;;;5084499;28;20059;-49
2023/03/30 05:11:48;;;;;;;6.78;3.30;;;11.80;99.90;;;;;;5084544;28;20388;-50
2023/03/30 05:14:14;;;;;;;7.18;3.20;;;11.80;99.90;;;;;;5081673;28;20081;-52
2023/03/30 05:16:40;;;;;;;5.13;3.15;;;11.80;99.90;;;;;;5076498;28;20057;-51
2023/03/30 05:19:05;;;;;;;8.65;3.47;;;11.80;99.90;;;;;;5076754;28;20079;-49
2023/03/30 05:21:31;;;;;;;7.15;3.80;;;11.90;99.90;;;;;;5088550;28;20429;-52
2023/03/30 05:23:57;;;;;;;9.95;3.30;;;11.90;99.90;;;;;;5087795;28;21698;-52
2023/03/30 05:26:22;;;;;;;6.82;3.15;;;11.90;99.90;;;;;;5084251;28;20139;-51
2023/03/30 05:28:49;;;;;;;5.53;3.10;;;11.90;99.90;;;;;;5085894;28;20501;-52
2023/03/30 05:31:15;;;;;;;6.45;3.03;;;11.90;99.90;;;;;;5083501;28;20427;-52
2023/03/30 05:33:41;;;;;;;8.05;3.30;;;11.90;99.90;;;;;;5086342;28;20532;-49
2023/03/30 05:36:07;;;;;;;5.97;2.78;;;11.90;99.90;;;;;;5088205;28;20093;-54
2023/03/30 05:38:34;;;;;;;6.43;2.58;;;11.90;99.90;;;;;;5077091;28;20044;-50
2023/03/30 05:41:01;;;;;;;5.90;2.70;;;11.90;99.90;;;;;;5082091;28;20032;-51
2023/03/30 05:43:26;;;;;;;6.20;2.70;;;11.90;99.90;;;;;;5088846;28;20049;-54
2023/03/30 05:45:52;;;;;;;5.25;2.58;;;12.00;99.90;;;;;;5086608;28;20040;-53
2023/03/30 05:48:18;;;;;;;8.68;2.60;;;12.00;99.90;;;;;;5082584;28;20039;-52
2023/03/30 05:50:46;;;;;;;6.38;2.83;;;12.10;99.90;;;;;;5080293;28;20059;-53
2023/03/30 05:53:11;;;;;;;6.97;2.33;;;12.10;99.90;;;;;;5084662;28;20148;-49
2023/03/30 05:55:37;;;;;;;8.23;2.50;;;12.20;99.90;;;;;;5086143;28;20194;-53
2023/03/30 05:58:02;;;;;;;7.93;2.65;;;12.20;99.90;;;;;;5080630;28;20182;-50
2023/03/30 06:00:32;;;;;;;6.32;2.15;;;12.20;99.90;;;;;;5086210;28;21224;-51
2023/03/30 06:02:58;;;;;;;18.95;2.78;;;12.30;99.90;;;;;;5085864;28;20032;-53
2023/03/30 06:05:24;;;;;;;7.63;2.53;;;12.30;99.90;;;;;;5087724;28;20040;-53
2023/03/30 06:07:50;;;;;;;11.63;2.80;;;12.40;99.90;;;;;;5083914;28;20062;-53
2023/03/30 06:10:16;;;;;;;7.72;2.80;;;12.40;99.90;;;;;;5090701;28;21072;-54
2023/03/30 06:12:42;;;;;;;7.97;2.50;;;;;;;;;;5089071;28;20426;-55
2023/03/30 06:15:08;;;;;;;9.82;2.42;;;12.70;99.90;;;;;;5086217;28;20135;-54
2023/03/30 06:17:35;;;;;;;8.15;2.42;;;12.80;99.90;;;;;;5074608;28;20083;-53
2023/03/30 06:20:11;;;;;;;8.73;2.58;;;12.90;99.90;;;;;;5067424;28;20044;-52
2023/03/30 06:22:43;;;;;;;11.13;2.75;;;13.40;99.90;;;;;;5086622;28;20382;-54
2023/03/30 06:25:09;;;;;;;7.53;2.25;;;14.40;99.90;;;;;;5081948;28;21501;-50
2023/03/30 06:27:36;;;;;;;4.03;2.13;;;14.50;99.90;;;;;;5081706;28;20071;-52
2023/03/30 06:30:03;;;;;;;6.15;2.30;;;14.30;99.90;;;;;;5085775;28;20036;-50
2023/03/30 06:32:28;;;;;;;8.50;2.45;;;14.10;99.90;;;;;;5084176;28;20444;-54
2023/03/30 06:34:54;;;;;;;5.13;2.00;;;13.90;99.90;;;;;;5081770;28;20044;-50
2023/03/30 06:37:20;;;;;;;6.78;2.20;;;13.70;99.90;;;;;;5090032;28;20119;-51
2023/03/30 06:39:46;;;;;;;4.93;2.28;;;13.60;99.90;;;;;;5087047;28;20715;-50
2023/03/30 06:42:12;;;;;;;6.15;2.30;;;13.50;99.90;;;;;;5090411;28;20386;-52
2023/03/30 06:44:38;;;;;;;5.18;2.20;;;13.40;99.90;;;;;;5082933;28;20051;-53
2023/03/30 06:47:04;;;;;;;5.50;2.33;;;13.30;99.90;;;;;;5076728;28;20047;-53
2023/03/30 06:49:30;;;;;;;5.43;2.20;;;13.30;99.90;;;;;;5086580;28;20120;-51
2023/03/30 06:51:56;;;;;;;5.05;2.08;;;13.20;99.90;;;;;;5083369;28;20461;-51
2023/03/30 06:54:23;;;;;;;6.43;2.08;;;13.20;99.90;;;;;;5078187;28;20044;-53
2023/03/30 06:56:49;;;;;;;6.80;2.10;;;13.20;99.90;;;;;;5078547;28;20044;-51
2023/03/30 06:59:16;;;;;;;5.35;2.08;;;13.30;99.90;;;;;;5082503;28;20040;-52
2023/03/30 07:01:42;;;;;;;5.85;2.10;;;13.30;99.90;;;;;;5079992;28;20048;-51
2023/03/30 07:04:08;;;;;;;4.95;2.20;;;13.60;99.90;;;;;;5080136;28;20519;-50
2023/03/30 07:06:34;;;;;;;8.60;2.20;;;14.10;99.90;;;;;;5081271;28;20067;-50
2023/03/30 07:09:00;;;;;;;5.93;2.30;;;14.10;99.90;;;;;;5089017;28;20485;-50
2023/03/30 07:11:26;;;;;;;5.75;2.33;;;14.00;99.90;;;;;;5088695;28;20093;-50
2023/03/30 07:13:55;;;;;;;6.97;2.78;;;14.40;99.90;;;;;;5085495;28;20040;-51
2023/03/30 07:16:21;;;;;;;5.95;2.13;;;14.70;99.90;;;;;;5076378;28;20048;-51
2023/03/30 07:18:46;;;;;;;9.73;2.40;;;14.70;99.90;;;;;;5084797;28;20114;-48
2023/03/30 07:21:12;;;;;;;7.82;2.38;;;14.60;99.90;;;;;;5073120;28;20486;-52
2023/03/30 07:23:39;;;;;;;8.20;2.83;;;14.70;99.90;;;;;;5080389;28;20043;-53
2023/03/30 07:26:04;;;;;;;7.57;2.15;;;14.60;99.90;;;;;;5079380;28;20084;-50
2023/03/30 07:28:30;;;;;;;9.07;2.55;;;14.40;99.90;;;;;;5081919;28;20036;-51
2023/03/30 07:31:04;;;;;;;12.80;2.75;;;14.40;99.90;;;;;;5075184;28;20407;-52
2023/03/30 07:33:30;;;;;;;6.53;2.53;;;14.30;99.90;;;;;;5086589;28;20140;-49
2023/03/30 07:35:56;;;;;;;9.77;2.55;;;14.20;99.90;;;;;;5088684;28;20044;-50
2023/03/30 07:38:23;;;;;;;8.73;2.85;;;14.10;99.90;;;;;;5085284;28;20346;-53
2023/03/30 07:40:50;;;;;;;10.85;2.72;;;;;;;;;;5081462;28;20067;-53
2023/03/30 07:43:16;;;;;;;6.75;2.10;;;14.00;99.90;;;;;;5080070;28;20036;-50
2023/03/30 07:45:41;;;;;;;6.93;2.38;;;14.10;99.90;;;;;;5074187;28;20481;-52
2023/03/30 07:48:07;;;;;;;11.75;2.55;;;14.10;99.90;;;;;;5068980;28;20123;-49
2023/03/30 07:50:32;;;;;;;9.40;2.38;;;14.00;99.90;;;;;;5085639;28;20209;-49
2023/03/30 07:52:58;;;;;;;8.18;2.40;;;14.00;99.90;;;;;;5073098;28;20071;-50
2023/03/30 07:55:24;;;;;;;13.13;2.28;;;13.90;99.90;;;;;;5085601;28;20140;-49
2023/03/30 07:57:50;;;;;;;11.15;2.35;;;13.80;99.90;;;;;;5068858;28;20059;-49
2023/03/30 08:00:16;;;;;;;7.45;2.13;;;13.70;99.90;;;;;;5082649;28;20052;-50
2023/03/30 08:02:43;;;;;;;10.05;2.22;;;13.90;99.90;;;;;;5066385;28;20482;-49
2023/03/30 08:05:09;;;;;;;10.52;2.42;;;13.50;99.90;;;;;;5086447;28;20115;-51
2023/03/30 08:07:35;;;;;;;11.07;2.78;;;13.50;99.90;;;;;;5081676;28;20389;-49
2023/03/30 08:10:01;;;;;;;11.85;2.10;;;13.50;99.90;;;;;;5091613;28;20040;-49
2023/03/30 08:12:27;;;;;;;10.95;2.83;;;13.40;99.90;;;;;;5076785;28;20055;-50
2023/03/30 08:14:54;;;;;;;11.20;2.03;;;13.30;99.90;;;;;;5072193;28;20051;-49
2023/03/30 08:17:20;;;;;;;10.18;2.58;;;13.30;99.90;;;;;;5072884;28;20342;-49
2023/03/30 08:19:45;;;;;;;16.65;3.10;;;13.20;99.90;;;;;;5083362;28;20058;-49
2023/03/30 08:22:11;;;;;;;11.50;2.78;;;13.20;99.90;;;;;;5073013;28;20656;-49
2023/03/30 08:24:37;;;;;;;8.68;2.67;;;13.00;99.90;;;;;;5067127;28;20033;-49
2023/03/30 08:27:02;;;;;;;12.23;2.85;;;13.00;99.90;;;;;;5067834;28;20500;-51
2023/03/30 08:29:30;;;;;;;10.25;2.75;;;12.90;99.90;;;;;;5070888;28;20428;-49
2023/03/30 08:31:59;;;;;;;13.05;3.13;;;12.80;99.90;;;;;;5070970;28;20041;-50
2023/03/30 08:34:25;;;;;;;9.85;2.45;;;12.70;99.90;;;;;;5076258;28;20047;-51
2023/03/30 08:36:50;;;;;;;11.95;3.40;;;12.70;99.90;;;;;;5069051;28;20070;-50
2023/03/30 08:39:16;;;;;;;11.95;3.15;;;12.60;99.90;;;;;;5072276;28;20044;-49
2023/03/30 08:42:13;;;;;;;13.77;2.67;;;12.70;99.90;;;;;;5068842;28;20040;-51
2023/03/30 08:44:41;;;;;;;20.05;3.88;;;12.70;99.90;;;;;;5048625;28;20057;-49
2023/03/30 08:47:31;;;;;;;16.52;3.85;;;12.70;99.90;;;;;;5070771;28;20037;-49
2023/03/30 08:50:14;;;;;;;16.77;3.40;;;12.80;99.90;;;;;;5073457;28;20063;-50
2023/03/30 08:52:41;;;;;;;14.18;3.35;;;12.80;99.90;;;;;;5077958;28;20051;-51
2023/03/30 08:55:24;;;;;;;21.03;3.63;;;13.00;99.90;;;;;;5076452;28;20082;-50
2023/03/30 08:58:08;;;;;;;18.13;3.15;;;13.10;99.90;;;;;;5087508;28;20761;-51
2023/03/30 09:00:48;;;;;;;18.75;3.35;;;13.10;99.90;;;;;;5081813;28;20036;-52
2023/03/30 09:03:33;;;;;;;17.42;3.53;;;13.20;99.90;;;;;;5069749;28;20485;-48
2023/03/30 09:06:08;;;;;;;14.80;3.78;;;13.20;99.90;;;;;;5058528;28;20057;-50
2023/03/30 09:08:35;;;;;;;19.08;3.88;;;13.30;99.90;;;;;;5075633;28;20043;-51
2023/03/30 09:11:06;;;;;;;14.98;3.20;;;13.60;99.90;;;;;;5074822;28;20452;-49
2023/03/30 09:13:34;;;;;;;22.25;3.97;;;13.70;99.90;;;;;;5075140;28;20039;-49
2023/03/30 09:16:10;;;;;;;;;;;13.80;99.90;;;;;;5085818;28;20142;-49
2023/03/30 09:18:38;;;;;;;17.80;3.90;;;13.90;99.90;;;;;;5083714;28;19923;-49
2023/03/30 09:21:05;;;;;;;22.25;3.60;;;14.10;99.90;;;;;;5072244;28;20095;-49
2023/03/30 09:23:31;;;;;;;14.00;3.85;;;14.30;99.90;;;;;;5071378;28;20036;-49
2023/03/30 09:26:35;;;;;;;21.33;3.60;;;14.30;99.90;;;;;;5074410;28;20102;-48
2023/03/30 09:29:17;;;;;;;12.98;3.28;;;14.40;99.90;;;;;;5066058;28;20105;-50
2023/03/30 09:32:01;;;;;;;16.15;3.50;;;14.70;99.90;;;;;;5078112;28;20040;-48
2023/03/30 09:34:44;;;;;;;13.35;2.83;;;14.80;99.90;;;;;;5079227;28;20580;-48
2023/03/30 09:37:12;;;;;;;15.02;3.85;;;14.70;99.90;;;;;;5083034;28;20032;-49
2023/03/30 09:39:40;;;;;;;11.05;3.30;;;14.70;99.90;;;;;;5076759;28;20103;-48
2023/03/30 09:42:23;;;;;;;12.77;3.42;;;14.70;99.90;;;;;;5079468;28;20047;-48
2023/03/30 09:45:04;;;;;;;15.55;3.05;;;14.70;99.90;;;;;;5076274;28;20044;-48
2023/03/30 09:47:36;;;;;;;11.73;2.80;;;14.80;99.90;;;;;;5082489;28;20047;-50
2023/03/30 09:50:13;;;;;;;13.45;3.22;;;15.00;99.90;;;;;;5084689;28;20047;-48
2023/03/30 09:52:40;;;;;;;13.15;2.90;;;15.10;99.90;;;;;;5077949;28;20088;-49
2023/03/30 09:55:29;;;;;;;15.32;3.53;;;15.00;99.90;;;;;;5080208;28;20079;-53
2023/03/30 09:58:12;;;;;;;16.80;3.30;;;15.00;99.90;;;;;;5082527;28;20079;-53
2023/03/30 10:00:38;;;;;;;12.35;3.25;;;14.90;99.90;;;;;;5080856;28;20048;-48
2023/03/30 10:03:06;;;;;;;16.67;3.35;;;15.00;99.90;;;;;;5077620;28;20037;-49
2023/03/30 10:05:35;;;;;;;14.25;3.30;;;15.00;99.90;;;;;;5077655;28;20443;-49
2023/03/30 10:08:04;;;;;;;14.88;3.10;;;15.10;99.90;;;;;;5077874;28;20610;-50
2023/03/30 10:10:36;;;;;;;16.42;3.17;;;15.10;99.90;;;;;;5082248;28;20036;-52
2023/03/30 10:13:10;;;;;;;15.43;4.00;;;15.10;99.90;;;;;;5082316;28;20040;-50
2023/03/30 10:15:43;;;;;;;15.43;3.55;;;15.00;99.90;;;;;;5068778;28;20500;-52
2023/03/30 10:18:18;;;;;;;14.70;3.00;;;14.70;99.90;;;;;;5067563;28;20402;-51
2023/03/30 10:20:51;;;;;;;13.45;3.15;;;14.60;99.90;;;;;;5084182;28;20181;-50
2023/03/30 10:23:20;;;;;;;11.40;2.60;;;15.00;99.90;;;;;;5079613;28;21179;-49
2023/03/30 10:25:49;;;;;;;13.48;3.45;;;15.20;99.90;;;;;;5077167;28;20069;-51
2023/03/30 10:28:25;;;;;;;12.27;3.28;;;15.50;99.90;;;;;;5076608;28;20040;-49
2023/03/30 10:30:56;;;;;;;14.25;2.80;;;15.80;99.90;;;;;;5078603;28;20127;-54
2023/03/30 10:33:23;;;;;;;12.75;2.97;;;15.50;99.90;;;;;;5076371;28;20378;-51
2023/03/30 10:35:52;;;;;;;11.27;2.53;;;15.50;99.90;;;;;;5079640;28;20400;-49
2023/03/30 10:38:19;;;;;;;9.70;2.72;;;15.50;99.90;;;;;;5078401;28;20036;-49
2023/03/30 10:40:46;;;;;;;13.03;3.07;;;16.00;99.90;;;;;;5077053;28;20044;-50
2023/03/30 10:43:16;;;;;;;15.47;2.77;;;16.20;99.90;;;;;;5068118;28;20043;-49
2023/03/30 10:45:55;;;;;;;10.90;2.78;;;16.50;99.90;;;;;;5077953;28;20044;-49
2023/03/30 10:48:47;;;;;;;10.45;2.25;;;16.30;99.90;;;;;;5077405;28;20501;-49
2023/03/30 10:51:20;;;;;;;9.63;2.75;;;16.00;99.90;;;;;;5066340;28;20052;-52
2023/03/30 10:54:11;;;;;;;10.95;2.80;;;15.90;99.90;;;;;;5073847;28;20044;-49
2023/03/30 10:56:45;;;;;;;14.35;2.95;;;15.80;99.90;;;;;;5065397;28;20058;-50
2023/03/30 10:59:39;;;;;;;14.85;3.15;;;15.70;99.90;;;;;;5081193;28;20031;-49
2023/03/30 11:02:42;;;;;;;16.15;3.15;;;15.80;99.90;;;;;;5080429;28;20493;-48
2023/03/30 11:05:23;;;;;;;10.95;2.75;;;15.70;99.90;;;;;;5074218;28;20543;-48
2023/03/30 11:08:16;;;;;;;9.73;3.15;;;15.60;99.90;;;;;;5072218;28;20159;-48
2023/03/30 11:10:52;;;;;;;13.18;2.75;;;15.90;99.90;;;;;;5066185;28;20501;-50
2023/03/30 11:13:31;;;;;;;13.65;2.90;;;16.00;99.90;;;;;;5073901;28;20501;-49
2023/03/30 11:16:15;;;;;;;10.02;2.97;;;16.50;99.90;;;;;;5087875;28;20450;-51
2023/03/30 11:18:46;;;;;;;13.27;2.90;;;16.30;99.90;;;;;;5090931;28;20084;-48
2023/03/30 11:21:31;;;;;;;9.48;2.63;;;16.60;99.90;;;;;;5053645;28;20119;-49
2023/03/30 11:24:04;;;;;;;12.73;3.05;;;16.60;99.90;;;;;;5056366;28;20045;-50
2023/03/30 11:26:35;;;;;;;11.27;3.40;;;16.70;99.90;;;;;;5079671;28;20070;-49
2023/03/30 11:29:28;;;;;;;16.70;3.00;;;16.50;99.90;;;;;;5071471;28;20127;-49
2023/03/30 11:32:20;;;;;;;13.98;2.75;;;16.50;99.90;;;;;;5073583;28;20040;-48
2023/03/30 11:35:29;;;;;;;12.20;2.90;;;16.40;99.90;;;;;;5086094;28;20055;-49
2023/03/30 11:38:11;;;;;;;16.77;2.90;;;16.50;99.90;;;;;;5051601;28;20156;-50
2023/03/30 11:40:45;;;;;;;11.02;2.63;;;16.30;99.90;;;;;;5064318;28;20053;-49
2023/03/30 11:43:15;;;;;;;13.25;3.13;;;16.20;99.90;;;;;;5070740;28;20045;-50
2023/03/30 11:45:59;;;;;;;10.93;3.00;;;16.60;99.90;;;;;;5070883;28;20059;-51
2023/03/30 11:48:35;;;;;;;10.45;2.50;;;16.70;99.90;;;;;;5066811;28;20115;-49
2023/03/30 11:51:12;;;;;;;14.13;2.75;;;16.60;99.90;;;;;;5049697;28;20523;-51
2023/03/30 11:53:55;;;;;;;11.30;3.17;;;16.40;99.90;;;;;;5049409;28;20060;-48
2023/03/30 11:56:26;;;;;;;8.23;2.35;;;16.10;99.90;;;;;;5054947;28;20094;-49
2023/03/30 11:59:04;;;;;;;14.10;2.95;;;16.00;99.90;;;;;;5037077;28;20059;-51
2023/03/30 12:01:42;;;;;;;16.45;3.15;;;16.00;99.90;;;;;;5070636;28;20123;-50
2023/03/30 12:04:11;;;;;;;12.35;3.13;;;15.80;99.90;;;;;;5058796;28;20101;-49
2023/03/30 12:06:54;;;;;;;14.68;3.10;;;15.40;99.90;;;;;;5050442;28;20045;-48
2023/03/30 12:09:44;;;;;;;18.98;3.70;;;15.10;99.90;;;;;;5054683;28;20434;-48
2023/03/30 12:12:23;;;;;;;18.88;3.45;;;15.00;99.90;;;;;;5054311;28;20406;-48
2023/03/30 12:15:00;;;;;;;16.40;3.88;;;15.20;99.90;;;;;;5052719;28;20053;-48
2023/03/30 12:17:39;;;;;;;17.30;3.70;;;15.20;99.90;;;;;;5052726;28;20071;-49
2023/03/30 12:20:26;;;;;;;18.05;3.55;;;15.40;99.90;;;;;;5066731;28;20121;-48
2023/03/30 12:23:08;;;;;;;14.87;3.57;;;16.00;99.90;;;;;;5072687;28;20135;-48
2023/03/30 12:25:49;;;;;;;17.95;3.95;;;16.10;99.90;;;;;;5088618;28;20040;-48
2023/03/30 12:28:16;;;;;;;16.33;4.03;;;16.10;99.90;;;;;;5079110;28;20127;-50
2023/03/30 12:30:59;;;;;;;18.17;3.85;;;15.80;99.90;;;;;;5071839;28;20452;-49
2023/03/30 12:33:27;;;;;;;17.98;3.40;;;15.60;99.90;;;;;;5072021;28;20091;-50
2023/03/30 12:36:16;;;;;;;;;;;15.20;99.90;;;;;;5071838;28;20079;-51
2023/03/30 12:38:45;;;;;;;12.77;2.90;;;14.60;99.90;;;;;;5047764;28;20344;-51
2023/03/30 12:41:15;;;;;;;13.57;2.78;;;14.30;99.90;;;;;;5050168;28;20053;-50
2023/03/30 12:43:54;;;;;;;14.55;2.75;;;14.30;99.90;;;;;;5049596;28;20141;-51
2023/03/30 12:46:30;;;;;;;17.48;3.45;;;14.40;99.90;;;;;;5030315;28;20042;-51
2023/03/30 12:49:20;;;;;;;17.23;3.25;;;14.60;99.90;;;;;;5033252;28;20044;-50
2023/03/30 12:52:09;;;;;;;14.85;4.07;;;14.60;99.90;;;;;;5039583;28;20135;-50
2023/03/30 12:54:57;;;;;;;19.83;3.90;;;14.40;99.90;;;;;;5042570;28;20198;-51
2023/03/30 12:57:41;;;;;;;18.40;3.88;;;14.30;99.90;;;;;;5022049;28;20176;-52
2023/03/30 13:00:36;;;;;;;21.52;3.78;;;14.30;99.90;;;;;;5030169;28;20116;-49
2023/03/30 13:03:14;;;;;;;20.92;4.32;;;14.50;99.90;;;;;;4951010;28;20579;-50
2023/03/30 13:05:42;;;;;;;17.23;3.45;;;14.70;99.90;;;;;;4954438;28;20148;-49
2023/03/30 13:08:20;;;;;;;;;;;15.10;99.90;;;;;;4971371;28;20059;-49
2023/03/30 13:10:46;;;;;;;18.35;4.28;;;15.40;99.90;;;;;;4971262;28;19922;-49